createdAt,value
2017-12-04T14:20:06.302Z,244
2017-12-04T14:21:15.897Z,256
2017-12-04T14:22:24.856Z,220
2017-12-04T14:23:34.336Z,196
2017-12-04T14:24:42.988Z,176
2017-12-04T14:25:51.920Z,192
2017-12-04T14:27:00.837Z,196
2017-12-04T14:28:09.751Z,180
2017-12-04T14:29:18.942Z,184
2017-12-04T14:30:28.154Z,172
2017-12-04T14:31:37.347Z,208
2017-12-04T14:32:46.596Z,204
2017-12-04T14:33:55.273Z,180
2017-12-04T14:35:04.190Z,160
2017-12-04T14:36:13.415Z,144
2017-12-04T14:37:22.846Z,136
2017-12-04T14:38:32.036Z,120
2017-12-04T14:39:41.749Z,116
2017-12-04T14:40:50.434Z,108
2017-12-04T14:41:59.353Z,104
2017-12-04T14:43:08.267Z,104
2017-12-04T14:44:17.696Z,104
2017-12-04T14:45:26.603Z,92
2017-12-04T14:46:35.574Z,80
2017-12-04T14:47:44.743Z,72
2017-12-04T14:48:53.926Z,72
2017-12-04T14:50:03.378Z,64
2017-12-04T14:51:13.067Z,64
2017-12-04T14:52:22.511Z,68
2017-12-04T14:53:31.472Z,60
2017-12-04T14:54:40.389Z,60
2017-12-04T14:55:49.826Z,68
2017-12-04T14:56:59.014Z,72
2017-12-04T14:58:07.929Z,76
2017-12-04T14:59:16.886Z,76
2017-12-04T15:00:26.072Z,68
2017-12-04T15:01:34.724Z,64
2017-12-04T15:02:43.909Z,68
2017-12-04T15:03:53.086Z,68
2017-12-04T15:05:02.291Z,60
2017-12-04T15:06:11.727Z,60
2017-12-04T15:07:21.173Z,60
2017-12-04T15:08:29.841Z,60
2017-12-04T15:09:38.788Z,52
2017-12-04T15:10:48.000Z,48
2017-12-04T15:11:57.451Z,40
2017-12-04T15:13:06.382Z,36
2017-12-04T15:14:15.815Z,32
2017-12-04T15:15:24.730Z,32
2017-12-04T15:16:33.913Z,28
2017-12-04T15:17:43.339Z,36
2017-12-04T15:18:52.271Z,36
2017-12-04T15:20:01.452Z,32
2017-12-04T15:21:10.390Z,28
2017-12-04T15:22:19.832Z,24
2017-12-04T15:23:29.075Z,24
2017-12-04T15:24:38.269Z,20
2017-12-04T15:25:46.921Z,20
2017-12-04T15:26:55.574Z,16
2017-12-04T15:28:05.057Z,16
2017-12-04T15:29:13.976Z,20
2017-12-04T15:30:23.177Z,16
2017-12-04T15:31:32.092Z,16
2017-12-04T15:32:41.289Z,16
2017-12-04T15:33:50.458Z,12
2017-12-04T15:34:59.998Z,12
2017-12-04T15:36:09.191Z,12
2017-12-04T15:37:18.125Z,12
2017-12-04T15:38:27.048Z,12
2017-12-04T15:39:35.962Z,8
2017-12-04T15:40:45.154Z,8
2017-12-04T15:41:54.115Z,4
2017-12-04T15:43:02.848Z,8
2017-12-04T15:44:12.037Z,4
2017-12-04T15:45:20.952Z,4
2017-12-04T15:46:30.133Z,4
2017-12-04T15:47:39.557Z,0
2017-12-04T15:48:48.736Z,4
2017-12-04T15:49:57.438Z,4
2017-12-04T15:51:06.150Z,4
2017-12-04T15:52:15.338Z,4
2017-12-04T15:53:24.279Z,4
2017-12-04T15:54:33.486Z,4
2017-12-04T15:55:42.706Z,0
2017-12-04T15:56:51.640Z,0
2017-12-04T15:58:00.329Z,4
2017-12-04T15:59:08.996Z,4
2017-12-04T16:00:18.467Z,4
2017-12-04T16:01:27.930Z,4
2017-12-04T16:02:37.386Z,4
2017-12-04T16:03:47.109Z,4
2017-12-04T16:04:56.283Z,4
2017-12-04T16:06:04.954Z,4
2017-12-04T16:07:14.923Z,4
2017-12-04T16:08:23.853Z,4
2017-12-04T16:09:33.022Z,4
2017-12-04T16:10:42.195Z,4
2017-12-04T16:11:51.149Z,4
2017-12-04T16:13:00.066Z,4
2017-12-04T16:14:08.985Z,4
2017-12-04T16:15:17.896Z,4
2017-12-04T16:16:26.837Z,4
2017-12-04T16:17:35.782Z,4
2017-12-04T16:18:44.712Z,4
2017-12-04T16:19:53.400Z,4
2017-12-04T16:21:02.604Z,4
2017-12-04T16:22:12.058Z,4
2017-12-04T16:23:20.736Z,4
2017-12-04T16:24:29.930Z,4
2017-12-04T16:25:39.165Z,4
2017-12-04T16:26:48.377Z,4
2017-12-04T16:27:57.041Z,4
2017-12-04T16:29:06.490Z,4
2017-12-04T16:30:15.692Z,4
2017-12-04T16:31:24.615Z,4
2017-12-04T16:32:33.823Z,4
2017-12-04T16:33:42.745Z,4
2017-12-04T16:34:52.231Z,4
2017-12-04T16:36:01.210Z,4
2017-12-04T16:37:09.879Z,4
2017-12-04T16:38:19.330Z,4
2017-12-04T16:39:28.273Z,4
2017-12-04T16:40:37.193Z,4
2017-12-04T16:41:46.119Z,4
2017-12-04T16:42:55.307Z,4
2017-12-04T16:44:04.495Z,4
2017-12-04T16:45:13.445Z,4
2017-12-04T16:46:22.636Z,4
2017-12-04T16:47:31.293Z,4
2017-12-04T16:48:40.527Z,4
2017-12-04T16:49:49.474Z,4
2017-12-04T16:50:58.485Z,4
2017-12-04T16:52:07.657Z,4
2017-12-04T16:53:17.108Z,4
2017-12-04T16:54:26.307Z,4
2017-12-04T16:55:35.477Z,4
2017-12-04T16:56:45.197Z,4
2017-12-04T16:57:53.873Z,4
2017-12-04T16:59:02.808Z,4
2017-12-04T17:00:11.724Z,4
2017-12-04T17:01:20.904Z,4
2017-12-04T17:02:30.117Z,4
2017-12-04T17:03:39.342Z,4
2017-12-04T17:04:48.288Z,4
2017-12-04T17:05:57.751Z,4
2017-12-04T17:07:06.710Z,4
2017-12-04T17:08:15.931Z,4
2017-12-04T17:09:24.871Z,4
2017-12-04T17:10:33.833Z,4
2017-12-04T17:11:42.494Z,4
2017-12-04T17:12:51.733Z,4
2017-12-04T17:14:00.384Z,4
2017-12-04T17:15:09.551Z,4
2017-12-04T17:16:18.524Z,4
2017-12-04T17:17:27.704Z,4
2017-12-04T17:18:36.632Z,4
2017-12-04T17:19:45.560Z,4
2017-12-04T17:20:54.225Z,4
2017-12-04T17:22:03.403Z,4
2017-12-04T17:23:13.307Z,4
2017-12-04T17:24:22.747Z,4
2017-12-04T17:25:32.193Z,4
2017-12-04T17:26:41.632Z,4
2017-12-04T17:27:50.927Z,4
2017-12-04T17:29:00.268Z,4
2017-12-04T17:30:09.538Z,4
2017-12-04T17:31:18.857Z,4
2017-12-04T17:32:28.035Z,4
2017-12-04T17:33:37.238Z,4
2017-12-04T17:34:46.491Z,4
2017-12-04T17:35:56.187Z,4
2017-12-04T17:37:05.690Z,4
2017-12-04T17:38:15.524Z,4
2017-12-04T17:39:25.422Z,4
2017-12-04T17:40:34.635Z,4
2017-12-04T17:41:43.392Z,4
2017-12-04T17:42:52.391Z,4
2017-12-04T17:44:01.644Z,4
2017-12-04T17:45:11.038Z,4
2017-12-04T17:46:19.733Z,4
2017-12-04T17:47:28.728Z,4
2017-12-04T17:48:37.659Z,4
2017-12-04T17:49:46.588Z,4
2017-12-04T17:50:55.779Z,4
2017-12-04T17:52:04.452Z,4
2017-12-04T17:53:13.394Z,4
2017-12-04T17:54:22.589Z,4
2017-12-04T17:55:31.761Z,4
2017-12-04T17:56:40.993Z,4
2017-12-04T17:57:50.162Z,4
2017-12-04T17:58:59.365Z,4
2017-12-04T18:00:08.587Z,4
2017-12-04T18:01:18.040Z,4
2017-12-04T18:02:27.008Z,4
2017-12-04T18:03:36.257Z,4
2017-12-04T18:04:45.503Z,4
2017-12-04T18:05:54.986Z,4
2017-12-04T18:07:04.237Z,4
2017-12-04T18:08:13.691Z,4
2017-12-04T18:09:22.924Z,4
2017-12-04T18:10:32.387Z,4
2017-12-04T18:11:41.316Z,4
2017-12-04T18:12:50.248Z,4
2017-12-04T18:13:59.423Z,4
2017-12-04T18:15:08.087Z,4
2017-12-04T18:16:17.522Z,4
2017-12-04T18:17:26.449Z,4
2017-12-04T18:18:35.738Z,4
2017-12-04T18:19:45.081Z,4
2017-12-04T18:20:55.274Z,4
2017-12-04T18:22:05.394Z,4
2017-12-04T18:23:14.974Z,4
2017-12-04T18:24:24.503Z,4
2017-12-04T18:25:33.979Z,4
2017-12-04T18:26:42.925Z,4
2017-12-04T18:27:51.636Z,4
2017-12-04T18:29:00.609Z,4
2017-12-04T18:30:09.554Z,4
2017-12-04T18:31:18.764Z,4
2017-12-04T18:32:27.439Z,4
2017-12-04T18:33:36.407Z,4
2017-12-04T18:34:46.312Z,4
2017-12-04T18:35:55.618Z,4
2017-12-04T18:37:04.881Z,4
2017-12-04T18:38:14.359Z,4
2017-12-04T18:39:24.394Z,4
2017-12-04T18:40:33.809Z,4
2017-12-04T18:41:42.827Z,4
2017-12-04T18:42:51.539Z,4
2017-12-04T18:44:00.268Z,4
2017-12-04T18:45:09.627Z,4
2017-12-04T18:46:18.987Z,4
2017-12-04T18:47:28.154Z,4
2017-12-04T18:48:36.812Z,4
2017-12-04T18:49:46.057Z,4
2017-12-04T18:50:55.006Z,4
2017-12-04T18:52:03.710Z,4
2017-12-04T18:53:12.957Z,4
2017-12-04T18:54:21.886Z,4
2017-12-04T18:55:31.107Z,4
2017-12-04T18:56:40.592Z,4
2017-12-04T18:57:49.850Z,4
2017-12-04T18:58:59.070Z,4
2017-12-04T19:00:08.268Z,0
2017-12-04T19:01:17.449Z,4
2017-12-04T19:02:26.654Z,4
2017-12-04T19:03:35.618Z,4
2017-12-04T19:04:44.313Z,4
2017-12-04T19:05:53.706Z,0
2017-12-04T19:07:03.521Z,4
2017-12-04T19:08:12.482Z,4
2017-12-04T19:09:21.722Z,4
2017-12-04T19:10:30.671Z,4
2017-12-04T19:11:39.979Z,4
2017-12-04T19:12:49.152Z,4
2017-12-04T19:13:58.133Z,4
2017-12-04T19:15:07.323Z,4
2017-12-04T19:16:16.772Z,0
2017-12-04T19:17:25.692Z,4
2017-12-04T19:18:34.362Z,4
2017-12-04T19:19:44.008Z,4
2017-12-04T19:20:53.284Z,4
2017-12-04T19:22:02.462Z,0
2017-12-04T19:23:11.730Z,0
2017-12-04T19:24:20.721Z,0
2017-12-04T19:25:29.669Z,0
2017-12-04T19:26:39.399Z,0
2017-12-04T19:27:48.999Z,0
2017-12-04T19:28:57.954Z,0
2017-12-04T19:30:06.895Z,0
2017-12-04T19:31:16.058Z,0
2017-12-04T19:32:25.499Z,0
2017-12-04T19:33:34.984Z,0
2017-12-04T19:34:44.459Z,0
2017-12-04T19:35:53.412Z,0
2017-12-04T19:37:02.616Z,0
2017-12-04T19:38:12.059Z,0
2017-12-04T19:39:21.528Z,0
2017-12-04T19:40:30.972Z,0
2017-12-04T19:41:39.889Z,0
2017-12-04T19:42:48.554Z,0
2017-12-04T19:43:57.472Z,0
2017-12-04T19:45:06.675Z,0
2017-12-04T19:46:16.380Z,0
2017-12-04T19:47:25.553Z,0
2017-12-04T19:48:34.775Z,0
2017-12-04T19:49:43.939Z,0
2017-12-04T19:50:52.855Z,0
2017-12-04T19:52:01.786Z,0
2017-12-04T19:53:10.989Z,0
2017-12-04T19:54:19.906Z,0
2017-12-04T19:55:29.079Z,0
2017-12-04T19:56:39.040Z,0
2017-12-04T19:57:49.070Z,0
2017-12-04T19:58:58.006Z,0
2017-12-04T20:00:07.442Z,0
2017-12-04T20:01:16.608Z,0
2017-12-04T20:02:25.303Z,0
2017-12-04T20:03:34.261Z,0
2017-12-04T20:04:43.206Z,0
2017-12-04T20:05:51.901Z,0
2017-12-04T20:07:00.852Z,0
2017-12-04T20:08:09.794Z,0
2017-12-04T20:09:18.782Z,0
2017-12-04T20:10:28.492Z,0
2017-12-04T20:11:37.432Z,0
2017-12-04T20:12:46.379Z,0
2017-12-04T20:13:55.816Z,0
2017-12-04T20:15:04.755Z,0
2017-12-04T20:16:14.208Z,0
2017-12-04T20:17:23.376Z,0
2017-12-04T20:18:32.300Z,0
2017-12-04T20:19:41.479Z,0
2017-12-04T20:20:50.139Z,0
2017-12-04T20:22:00.110Z,0
2017-12-04T20:23:09.337Z,0
2017-12-04T20:24:18.252Z,0
2017-12-04T20:25:27.421Z,0
2017-12-04T20:26:36.089Z,0
2017-12-04T20:27:45.262Z,0
2017-12-04T20:28:54.471Z,0
2017-12-04T20:30:03.642Z,0
2017-12-04T20:31:12.906Z,0
2017-12-04T20:32:21.796Z,0
2017-12-04T20:33:31.231Z,0
2017-12-04T20:34:40.435Z,0
2017-12-04T20:35:49.919Z,0
2017-12-04T20:36:58.840Z,0
2017-12-04T20:38:08.355Z,0
2017-12-04T20:39:16.992Z,0
2017-12-04T20:40:25.907Z,0
2017-12-04T20:41:35.934Z,0
2017-12-04T20:42:44.926Z,0
2017-12-04T20:43:53.594Z,0
2017-12-04T20:45:02.821Z,0
2017-12-04T20:46:12.309Z,0
2017-12-04T20:47:22.011Z,0
2017-12-04T20:48:31.207Z,0
2017-12-04T20:49:40.643Z,0
2017-12-04T20:50:49.580Z,0
2017-12-04T20:51:59.250Z,0
2017-12-04T20:53:08.674Z,0
2017-12-04T20:54:18.824Z,0
2017-12-04T20:55:27.573Z,0
2017-12-04T20:56:37.228Z,0
2017-12-04T20:57:46.707Z,0
2017-12-04T20:58:55.967Z,0
2017-12-04T21:00:05.960Z,4
2017-12-04T21:01:14.768Z,4
2017-12-04T21:02:23.686Z,0
2017-12-04T21:03:33.308Z,0
2017-12-04T21:04:42.671Z,0
2017-12-04T21:05:52.888Z,0
2017-12-04T21:07:02.133Z,0
2017-12-04T21:08:11.582Z,0
2017-12-04T21:09:21.517Z,0
2017-12-04T21:10:31.136Z,0
2017-12-04T21:11:41.148Z,0
2017-12-04T21:12:50.808Z,0
2017-12-04T21:13:59.600Z,0
2017-12-04T21:15:08.606Z,0
2017-12-04T21:16:17.538Z,0
2017-12-04T21:17:26.191Z,0
2017-12-04T21:18:35.110Z,0
2017-12-04T21:19:44.593Z,0
2017-12-04T21:20:53.525Z,0
2017-12-04T21:22:03.235Z,0
2017-12-04T21:23:12.141Z,0
2017-12-04T21:24:21.081Z,0
2017-12-04T21:25:30.043Z,0
2017-12-04T21:26:39.740Z,0
2017-12-04T21:27:48.907Z,0
2017-12-04T21:28:58.089Z,0
2017-12-04T21:30:07.294Z,0
2017-12-04T21:31:16.212Z,0
2017-12-04T21:32:25.158Z,0
2017-12-04T21:33:34.075Z,0
2017-12-04T21:34:43.572Z,0
2017-12-04T21:35:52.508Z,0
2017-12-04T21:37:01.420Z,0
2017-12-04T21:38:10.605Z,0
2017-12-04T21:39:19.522Z,0
2017-12-04T21:40:29.235Z,0
2017-12-04T21:41:37.886Z,0
2017-12-04T21:42:47.585Z,0
2017-12-04T21:43:56.763Z,0
2017-12-04T21:45:05.415Z,0
2017-12-04T21:46:14.608Z,0
2017-12-04T21:47:23.531Z,0
2017-12-04T21:48:32.176Z,0
2017-12-04T21:49:41.095Z,0
2017-12-04T21:50:50.011Z,0
2017-12-04T21:51:59.209Z,0
2017-12-04T21:53:08.392Z,0
2017-12-04T21:54:17.034Z,0
2017-12-04T21:55:25.962Z,0
2017-12-04T21:56:34.863Z,0
2017-12-04T21:57:44.039Z,0
2017-12-04T21:58:52.951Z,0
2017-12-04T22:00:02.398Z,0
2017-12-04T22:01:11.623Z,0
2017-12-04T22:02:20.538Z,0
2017-12-04T22:03:29.705Z,0
2017-12-04T22:04:38.616Z,0
2017-12-04T22:05:47.559Z,0
2017-12-04T22:06:56.740Z,0
2017-12-04T22:08:05.671Z,0
2017-12-04T22:09:14.864Z,0
2017-12-04T22:10:24.303Z,0
2017-12-04T22:11:33.482Z,0
2017-12-04T22:12:42.643Z,0
2017-12-04T22:13:51.542Z,0
2017-12-04T22:15:00.706Z,0
2017-12-04T22:16:09.620Z,0
2017-12-04T22:17:19.117Z,0
2017-12-04T22:18:28.538Z,0
2017-12-04T22:19:37.962Z,0
2017-12-04T22:20:46.868Z,0
2017-12-04T22:21:55.792Z,0
2017-12-04T22:23:05.226Z,0
2017-12-04T22:24:14.696Z,0
2017-12-04T22:25:23.880Z,0
2017-12-04T22:26:33.330Z,0
2017-12-04T22:27:42.032Z,0
2017-12-04T22:28:51.199Z,0
2017-12-04T22:30:00.390Z,0
2017-12-04T22:31:09.553Z,0
2017-12-04T22:32:18.729Z,0
2017-12-04T22:33:27.915Z,0
2017-12-04T22:34:36.650Z,0
2017-12-04T22:35:45.560Z,0
2017-12-04T22:36:54.493Z,0
2017-12-04T22:38:03.667Z,0
2017-12-04T22:39:12.838Z,0
2017-12-04T22:40:21.762Z,0
2017-12-04T22:41:30.689Z,0
2017-12-04T22:42:39.342Z,0
2017-12-04T22:43:48.555Z,0
2017-12-04T22:44:57.478Z,0
2017-12-04T22:46:06.670Z,0
2017-12-04T22:47:15.862Z,0
2017-12-04T22:48:24.777Z,0
2017-12-04T22:49:33.694Z,0
2017-12-04T22:50:42.947Z,0
2017-12-04T22:51:51.859Z,0
2017-12-04T22:53:01.027Z,0
2017-12-04T22:54:09.687Z,0
2017-12-04T22:55:18.856Z,0
2017-12-04T22:56:27.786Z,0
2017-12-04T22:57:36.977Z,0
2017-12-04T22:58:45.907Z,0
2017-12-04T22:59:55.342Z,0
2017-12-04T23:01:04.294Z,0
2017-12-04T23:02:13.483Z,0
2017-12-04T23:03:22.658Z,0
2017-12-04T23:04:31.567Z,0
2017-12-04T23:05:41.011Z,0
2017-12-04T23:06:50.197Z,0
2017-12-04T23:07:59.630Z,0
2017-12-04T23:09:09.323Z,0
2017-12-04T23:10:18.248Z,0
2017-12-04T23:11:27.683Z,0
2017-12-04T23:12:36.865Z,0
2017-12-04T23:13:46.376Z,0
2017-12-04T23:14:55.310Z,0
2017-12-04T23:16:04.021Z,0
2017-12-04T23:17:12.940Z,0
2017-12-04T23:18:22.106Z,0
2017-12-04T23:19:30.749Z,0
2017-12-04T23:20:39.666Z,0
2017-12-04T23:21:48.579Z,0
2017-12-04T23:22:57.761Z,0
2017-12-04T23:24:06.939Z,0
2017-12-04T23:25:16.116Z,0
2017-12-04T23:26:25.416Z,0
2017-12-04T23:27:34.905Z,0
2017-12-04T23:28:44.080Z,0
2017-12-04T23:29:53.243Z,0
2017-12-04T23:31:01.910Z,0
2017-12-04T23:32:11.605Z,0
2017-12-04T23:33:20.605Z,0
2017-12-04T23:34:29.587Z,0
2017-12-04T23:35:40.052Z,0
2017-12-04T23:36:49.916Z,0
2017-12-04T23:37:59.358Z,0
2017-12-04T23:39:08.700Z,0
2017-12-04T23:40:18.454Z,0
2017-12-04T23:41:27.738Z,0
2017-12-04T23:42:37.177Z,0
2017-12-04T23:43:46.355Z,0
2017-12-04T23:44:55.775Z,0
2017-12-04T23:46:04.689Z,0
2017-12-04T23:47:14.115Z,0
2017-12-04T23:48:23.529Z,0
2017-12-04T23:49:32.724Z,0
2017-12-04T23:50:41.654Z,0
2017-12-04T23:51:50.579Z,0
2017-12-04T23:52:59.487Z,0
2017-12-04T23:54:08.683Z,0
2017-12-04T23:55:17.622Z,0
2017-12-04T23:56:26.809Z,0
2017-12-04T23:57:35.733Z,0
2017-12-04T23:58:44.393Z,0
2017-12-04T23:59:53.302Z,0
